Time;durP1;ratioP1;P1;durP2;ratioP2;P2;SDS_P1;SDS_P2;PMS_P1;PMS_P2;Temp;Humidity;BMP_temperature;BMP_pressure;BME280_temperature;BME280_humidity;BME280_pressure;Samples;Min_cycle;Max_cycle;Signal;HPM_P1;HPM_P2
2021/03/08 00:02:33;;;;;;;10.63;8.80;;;;;;;0.16;55.74;97887.19;10036539;29;20106;-76
2021/03/08 00:07:53;;;;;;;13.50;9.05;;;;;;;0.16;55.75;97884.44;10023597;29;20057;-76
2021/03/08 00:13:13;;;;;;;12.20;8.75;;;;;;;0.11;55.95;97887.28;10023499;29;20057;-76
2021/03/08 00:18:32;;;;;;;9.88;7.85;;;;;;;0.12;56.36;97880.53;10023229;29;20517;-76
2021/03/08 00:23:52;;;;;;;11.98;8.43;;;;;;;0.06;56.52;97871.63;10035935;29;20106;-76
2021/03/08 00:29:12;;;;;;;11.45;8.05;;;;;;;0.04;56.67;97871.41;10048649;29;20045;-76
2021/03/08 00:34:32;;;;;;;10.35;8.05;;;;;;;0.00;56.46;97882.69;10034445;29;20050;-75
2021/03/08 00:39:52;;;;;;;15.57;8.43;;;;;;;-0.03;57.35;97872.75;10048047;29;20406;-76
2021/03/08 00:45:19;;;;;;;11.43;8.82;;;;;;;-0.04;57.24;97874.00;10048160;29;20091;-76
2021/03/08 00:50:46;;;;;;;11.02;8.30;;;;;;;-0.07;57.48;97864.09;10035624;29;20053;-75
2021/03/08 00:56:13;;;;;;;11.30;8.73;;;;;;;-0.12;57.62;97862.88;10035581;29;20050;-78
2021/03/08 01:01:34;;;;;;;11.15;8.23;;;;;;;-0.12;57.98;97859.41;10034771;29;20045;-74
2021/03/08 01:06:54;;;;;;;11.55;8.27;;;;;;;-0.12;57.69;97862.88;10034505;29;20122;-76
2021/03/08 01:12:16;;;;;;;15.02;8.70;;;;;;;-0.12;57.78;97853.91;10034906;29;20474;-75
2021/03/08 01:17:41;;;;;;;11.52;8.60;;;;;;;-0.17;58.27;97852.00;10046739;29;20401;-76
2021/03/08 01:23:01;;;;;;;11.43;8.63;;;;;;;-0.15;58.61;97846.72;10020968;29;20049;-75
2021/03/08 01:28:20;;;;;;;14.43;9.27;;;;;;;-0.15;58.55;97841.25;10021461;29;20054;-76
2021/03/08 01:33:40;;;;;;;11.27;8.70;;;;;;;-0.14;58.74;97839.97;10059727;29;20061;-76
2021/03/08 01:39:00;;;;;;;13.68;8.65;;;;;;;-0.14;58.54;97842.72;10033286;29;20042;-76
2021/03/08 01:44:20;;;;;;;14.48;9.95;;;;;;;-0.14;58.69;97837.22;10033017;29;20049;-76
2021/03/08 01:49:41;;;;;;;11.07;8.35;;;;;;;-0.10;58.47;97832.16;10020393;29;20067;-74
2021/03/08 01:55:00;;;;;;;12.57;9.48;;;;;;;-0.10;59.04;97832.91;10058450;29;20075;-75
2021/03/08 02:00:25;;;;;;;11.68;9.10;;;;;;;-0.14;58.98;97832.47;10032913;29;20046;-75
2021/03/08 02:05:46;;;;;;;12.23;8.88;;;;;;;-0.19;59.38;97843.53;10019506;29;20058;-75
2021/03/08 02:11:06;;;;;;;11.10;7.97;;;;;;;-0.15;59.25;97831.00;10019522;29;20057;-75
2021/03/08 02:16:47;;;;;;;11.30;7.95;;;;;;;-0.02;59.31;97822.06;10032523;29;20097;-75
2021/03/08 02:22:39;;;;;;;12.90;8.43;;;;;;;-0.01;59.10;97823.56;10042758;29;20049;-76
2021/03/08 02:28:44;;;;;;;10.75;8.23;;;;;;;-0.12;59.12;97823.72;10057684;29;20042;-75
2021/03/08 02:34:09;;;;;;;11.13;8.20;;;;;;;-0.15;59.30;97816.53;10057859;29;20478;-76
2021/03/08 02:39:32;;;;;;;9.90;7.25;;;;;;;-0.19;59.58;97822.34;10032177;29;20046;-75
2021/03/08 02:44:55;;;;;;;9.70;7.22;;;;;;;-0.22;59.18;97826.09;10031545;29;20148;-75
2021/03/08 02:50:16;;;;;;;9.70;7.15;;;;;;;-0.26;59.39;97816.69;10032155;29;20512;-75
2021/03/08 02:55:59;;;;;;;11.10;7.57;;;;;;;-0.33;59.47;97829.00;10034830;29;20046;-75
2021/03/08 03:01:19;;;;;;;9.02;6.78;;;;;;;-0.33;59.54;97820.78;10051874;29;20046;-75
2021/03/08 03:06:39;;;;;;;9.52;7.15;;;;;;;-0.31;59.51;97835.44;10051911;29;20120;-75
2021/03/08 03:11:59;;;;;;;9.75;7.00;;;;;;;-0.28;59.98;97839.16;10038416;29;20405;-74
2021/03/08 03:17:19;;;;;;;9.30;7.10;;;;;;;-0.22;59.61;97839.09;10025794;29;20047;-75
2021/03/08 03:22:40;;;;;;;9.25;7.00;;;;;;;-0.11;59.68;97831.44;10051005;29;20060;-76
2021/03/08 03:28:01;;;;;;;10.38;6.63;;;;;;;-0.04;60.06;97838.34;10037612;29;20045;-75
2021/03/08 03:33:21;;;;;;;11.95;7.28;;;;;;;0.13;60.22;97838.09;10037525;29;20049;-75
2021/03/08 03:38:40;;;;;;;9.65;6.38;;;;;;;0.40;60.29;97834.19;10024808;29;20398;-75
2021/03/08 03:44:01;;;;;;;8.13;5.93;;;;;;;0.69;59.69;97848.19;10050618;29;20050;-74
2021/03/08 03:49:21;;;;;;;8.68;6.25;;;;;;;0.90;59.64;97848.34;10037155;29;20078;-75
2021/03/08 03:54:41;;;;;;;8.52;5.70;;;;;;;1.07;58.97;97854.28;10024221;29;20090;-75
2021/03/08 04:00:01;;;;;;;10.43;6.22;;;;;;;1.19;58.72;97850.03;10049670;29;20099;-75
2021/03/08 04:05:23;;;;;;;8.07;5.90;;;;;;;1.24;58.59;97849.19;10049232;29;20058;-75
2021/03/08 04:10:43;;;;;;;9.73;6.47;;;;;;;1.29;58.79;97850.34;10062306;29;20045;-75
2021/03/08 04:16:03;;;;;;;8.90;5.85;;;;;;;1.31;58.94;97851.31;10049324;29;20041;-75
2021/03/08 04:21:23;;;;;;;8.07;5.65;;;;;;;1.39;58.59;97851.41;10036030;29;20045;-75
2021/03/08 04:26:42;;;;;;;8.10;6.18;;;;;;;1.47;58.30;97854.28;10035891;29;20052;-75
2021/03/08 04:32:03;;;;;;;8.82;5.97;;;;;;;1.49;58.22;97859.97;10035812;29;20053;-76
2021/03/08 04:37:22;;;;;;;11.48;6.20;;;;;;;1.51;58.57;97860.91;10022813;29;20515;-75
2021/03/08 04:42:42;;;;;;;8.45;6.95;;;;;;;1.61;58.25;97861.22;10048169;29;20048;-76
2021/03/08 04:48:03;;;;;;;10.95;7.10;;;;;;;1.61;57.89;97855.72;10047955;29;20047;-75
2021/03/08 04:53:22;;;;;;;8.75;6.90;;;;;;;1.51;58.82;97863.66;10047815;29;20052;-75
2021/03/08 04:58:42;;;;;;;10.98;6.72;;;;;;;1.42;58.51;97866.84;10034784;29;20052;-75
2021/03/08 05:04:03;;;;;;;11.98;6.85;;;;;;;1.41;59.01;97866.09;10021745;29;20049;-76
2021/03/08 05:09:23;;;;;;;10.15;7.40;;;;;;;1.48;58.75;97870.25;10034201;29;20060;-76
2021/03/08 05:14:43;;;;;;;12.00;7.80;;;;;;;1.48;58.53;97864.75;10034236;29;20046;-76
2021/03/08 05:20:11;;;;;;;10.27;7.53;;;;;;;1.51;58.80;97873.94;10033711;29;20049;-75
2021/03/08 05:25:32;;;;;;;11.57;7.97;;;;;;;1.53;58.99;97874.88;10033735;29;20057;-76
2021/03/08 05:30:52;;;;;;;11.40;7.53;;;;;;;1.58;58.89;97873.31;10008240;29;20056;-76
2021/03/08 05:36:12;;;;;;;11.35;7.95;;;;;;;1.56;59.37;97886.84;10043337;29;20053;-75
2021/03/08 05:41:41;;;;;;;13.35;8.50;;;;;;;1.59;58.81;97905.03;10019302;29;20050;-75
2021/03/08 05:47:43;;;;;;;10.80;8.30;;;;;;;1.56;60.04;97906.84;10021172;29;20068;-76
2021/03/08 05:53:19;;;;;;;13.00;8.13;;;;;;;1.53;59.93;97909.91;10056012;29;20060;-76
2021/03/08 05:59:13;;;;;;;12.07;8.63;;;;;;;1.54;59.90;97911.38;10043164;29;20409;-75
2021/03/08 06:04:55;;;;;;;15.57;8.70;;;;;;;1.53;60.12;97912.66;10031953;29;20045;-75
2021/03/08 06:10:25;;;;;;;13.50;8.82;;;;;;;1.52;60.19;97922.91;10007082;29;20098;-76
2021/03/08 06:15:49;;;;;;;12.82;8.77;;;;;;;1.56;61.28;97925.38;9993832;29;20455;-77
2021/03/08 06:21:11;;;;;;;12.25;8.98;;;;;;;1.49;61.46;97934.25;9982129;29;20046;-79
2021/03/08 06:26:31;;;;;;;13.90;8.93;;;;;;;1.70;61.81;97938.59;9990635;29;20046;-75
2021/03/08 06:31:52;;;;;;;12.00;8.73;;;;;;;1.90;62.02;97944.72;10012202;29;20060;-76
2021/03/08 06:37:13;;;;;;;12.02;8.82;;;;;;;1.97;62.84;97958.56;10002060;29;20057;-76
2021/03/08 06:42:33;;;;;;;15.23;8.85;;;;;;;1.91;62.00;97968.94;10001706;29;20046;-75
2021/03/08 06:47:55;;;;;;;12.32;9.00;;;;;;;1.82;62.13;97966.63;10001719;29;20042;-76
2021/03/08 06:53:30;;;;;;;12.07;8.80;;;;;;;1.82;62.04;97976.91;10014177;29;20079;-75
2021/03/08 06:59:12;;;;;;;12.82;8.70;;;;;;;1.79;61.94;97981.47;10005927;29;20132;-76
2021/03/08 07:04:32;;;;;;;12.60;8.65;;;;;;;1.82;63.04;97998.91;10026875;29;20046;-76
2021/03/08 07:09:53;;;;;;;9.20;7.43;;;;;;;1.93;62.57;97996.72;10026053;29;20051;-76
2021/03/08 07:15:13;;;;;;;11.45;8.10;;;;;;;2.07;62.87;98005.69;10051462;29;20386;-76
2021/03/08 07:20:33;;;;;;;10.88;8.48;;;;;;;2.22;63.17;98008.66;10025670;29;20046;-75
2021/03/08 07:26:06;;;;;;;10.85;8.10;;;;;;;2.52;62.38;98010.28;10025268;29;20052;-75
2021/03/08 07:31:34;;;;;;;12.73;8.68;;;;;;;2.65;62.84;98006.75;10025124;29;20046;-75
2021/03/08 07:37:01;;;;;;;12.63;8.95;;;;;;;2.66;62.84;98011.72;10025022;29;20049;-75
2021/03/08 07:42:21;;;;;;;13.70;9.20;;;;;;;2.87;62.62;98017.28;10049807;29;20050;-75
2021/03/08 07:47:41;;;;;;;13.25;9.00;;;;;;;2.99;63.51;98023.25;10024788;29;20045;-76
2021/03/08 07:53:01;;;;;;;12.68;9.18;;;;;;;3.09;62.15;98021.53;10024430;29;20061;-75
2021/03/08 07:58:20;;;;;;;12.38;8.93;;;;;;;3.18;61.91;98037.59;10000350;29;20050;-76
2021/03/08 08:03:40;;;;;;;13.15;9.13;;;;;;;3.19;62.19;98030.84;10005329;29;20490;-75
2021/03/08 08:09:01;;;;;;;13.38;8.52;;;;;;;3.11;62.08;98033.53;9998545;29;20054;-75
2021/03/08 08:14:20;;;;;;;13.80;9.05;;;;;;;3.20;62.75;98039.84;9998402;29;20054;-76
2021/03/08 08:19:45;;;;;;;11.10;8.75;;;;;;;3.23;62.27;98047.03;9998216;29;20493;-75
2021/03/08 08:25:05;;;;;;;13.70;9.65;;;;;;;3.29;62.61;98053.19;9997598;29;20046;-75
2021/03/08 08:30:25;;;;;;;10.20;8.75;;;;;;;3.41;62.38;98057.16;10010704;29;20054;-75
2021/03/08 08:35:45;;;;;;;11.27;8.07;;;;;;;3.66;62.33;98063.78;10023312;29;20046;-74
2021/03/08 08:41:24;;;;;;;14.85;8.00;;;;;;;3.92;62.68;98064.88;9996725;29;20046;-76
2021/03/08 08:46:45;;;;;;;10.90;8.55;;;;;;;4.28;61.93;98071.19;10009967;29;20053;-76
2021/03/08 08:52:08;;;;;;;10.32;8.20;;;;;;;4.05;61.80;98070.31;9983633;29;20072;-74
2021/03/08 08:57:29;;;;;;;8.77;7.80;;;;;;;3.85;62.15;98082.13;10004328;29;20069;-77
2021/03/08 09:02:48;;;;;;;11.43;8.23;;;;;;;3.94;62.42;98087.19;10021837;29;20056;-76
2021/03/08 09:08:30;;;;;;;10.32;7.60;;;;;;;4.23;62.33;98082.41;10034169;29;20053;-75
2021/03/08 09:14:42;;;;;;;9.85;7.57;;;;;;;5.24;61.88;98088.53;10022299;29;20057;-76
2021/03/08 09:20:02;;;;;;;8.18;7.30;;;;;;;6.40;61.46;98084.47;9998015;29;20096;-76
2021/03/08 09:25:27;;;;;;;8.95;7.05;;;;;;;7.75;59.90;98087.09;10059632;29;20131;-75
2021/03/08 09:30:48;;;;;;;10.95;7.05;;;;;;;8.14;58.67;98087.50;10059579;29;20046;-75
2021/03/08 09:36:08;;;;;;;9.40;6.45;;;;;;;8.55;58.40;98097.13;10033736;29;20049;-76
2021/03/08 09:41:30;;;;;;;7.13;6.05;;;;;;;8.69;57.81;98088.44;10020490;29;20113;-75
2021/03/08 09:46:55;;;;;;;9.95;6.40;;;;;;;8.30;57.20;98102.75;10020898;29;20057;-75
2021/03/08 09:52:37;;;;;;;9.48;6.85;;;;;;;8.01;56.46;98094.13;10026436;29;20050;-75
2021/03/08 09:57:58;;;;;;;7.97;6.13;;;;;;;8.02;56.80;98111.53;10005892;29;20140;-76
2021/03/08 10:03:17;;;;;;;9.55;6.47;;;;;;;7.93;56.80;98110.13;10020462;29;20409;-76
2021/03/08 10:08:37;;;;;;;9.32;7.22;;;;;;;9.70;55.59;98113.06;10019950;29;20513;-75
2021/03/08 10:13:58;;;;;;;8.55;7.22;;;;;;;16.11;53.54;98122.66;10029419;29;20041;-76
2021/03/08 10:19:21;;;;;;;8.18;6.93;;;;;;;19.93;45.44;98124.06;10007991;29;20046;-75
2021/03/08 10:24:40;;;;;;;8.60;6.70;;;;;;;21.86;39.40;98116.28;9974614;29;20056;-75
2021/03/08 10:30:00;;;;;;;10.77;7.72;;;;;;;20.27;36.18;98127.44;9957865;29;20490;-78
2021/03/08 10:35:20;;;;;;;10.02;7.65;;;;;;;18.75;34.93;98125.13;9957847;29;20046;-79
2021/03/08 10:40:41;;;;;;;9.80;7.55;;;;;;;20.05;35.57;98121.69;9957018;29;20047;-76
2021/03/08 10:46:01;;;;;;;11.50;7.93;;;;;;;23.32;29.77;98113.00;9969611;29;20046;-79
2021/03/08 10:51:20;;;;;;;7.65;6.50;;;;;;;24.62;27.87;98118.56;9956229;29;20477;-79
2021/03/08 10:56:44;;;;;;;7.78;6.35;;;;;;;25.34;24.93;98118.34;9956072;29;20046;-79
2021/03/08 11:02:05;;;;;;;7.65;6.57;;;;;;;23.75;23.13;98111.13;9956083;29;20051;-80
2021/03/08 11:07:32;;;;;;;7.70;6.03;;;;;;;21.14;23.29;98115.50;9995192;29;20068;-78
2021/03/08 11:13:07;;;;;;;7.45;6.05;;;;;;;19.47;23.46;98117.34;10044205;29;20057;-78
2021/03/08 11:18:27;;;;;;;8.38;5.45;;;;;;;18.01;24.16;98110.66;10038680;29;20060;-78
2021/03/08 11:23:47;;;;;;;7.22;6.13;;;;;;;16.57;24.88;98112.31;10027219;29;20053;-80
2021/03/08 11:29:23;;;;;;;5.55;4.43;;;;;;;15.38;25.33;98121.56;10051252;29;20524;-77
2021/03/08 11:34:44;;;;;;;6.85;5.25;;;;;;;15.80;26.33;98113.97;10026000;29;20507;-76
2021/03/08 11:40:06;;;;;;;6.13;4.90;;;;;;;15.46;26.46;98108.69;10025255;29;20046;-78
2021/03/08 11:45:27;;;;;;;6.43;4.35;;;;;;;15.84;25.97;98112.13;10026300;29;20056;-75
2021/03/08 11:50:46;;;;;;;5.65;4.60;;;;;;;14.30;26.62;98109.84;10025072;29;20061;-74
2021/03/08 11:56:06;;;;;;;5.03;4.53;;;;;;;13.96;27.68;98095.22;10025042;29;20053;-75
2021/03/08 12:33:06;;;;;;;4.93;3.78;;;;;;;9.17;31.02;98077.63;10219795;23;20064;-79
2021/03/08 12:38:26;;;;;;;6.25;3.70;;;;;;;8.53;31.55;98076.75;10011106;29;20052;-79
2021/03/08 12:43:46;;;;;;;5.18;3.80;;;;;;;8.18;31.98;98062.78;10010655;29;20049;-78
2021/03/08 12:49:06;;;;;;;6.15;4.30;;;;;;;7.96;32.47;98058.94;9984395;29;20069;-78
2021/03/08 12:54:26;;;;;;;5.38;3.78;;;;;;;7.98;33.05;98058.34;10002295;29;20051;-78
2021/03/08 12:59:46;;;;;;;6.18;4.00;;;;;;;9.23;33.50;98052.28;10047655;29;20045;-77
2021/03/08 13:05:07;;;;;;;5.93;4.10;;;;;;;10.25;32.38;98049.56;10021884;29;20070;-78
2021/03/08 13:10:27;;;;;;;4.88;3.55;;;;;;;10.71;31.81;98057.03;10016396;29;20138;-78
2021/03/08 13:15:47;;;;;;;4.35;3.08;;;;;;;11.33;32.00;98055.16;9996024;29;20046;-78
2021/03/08 13:21:07;;;;;;;5.05;3.38;;;;;;;11.99;30.80;98052.69;9990271;29;20117;-77
2021/03/08 13:26:27;;;;;;;6.07;3.83;;;;;;;11.82;30.02;98064.09;9982729;29;20042;-77
2021/03/08 13:31:47;;;;;;;6.05;4.30;;;;;;;11.35;30.19;98062.94;9981493;29;20049;-78
2021/03/08 13:37:06;;;;;;;11.15;5.38;;;;;;;10.80;30.27;98073.03;9977027;29;20050;-78
2021/03/08 13:42:26;;;;;;;8.75;5.03;;;;;;;9.98;30.67;98075.47;9981861;29;20501;-80
2021/03/08 13:47:46;;;;;;;6.22;3.28;;;;;;;9.39;30.75;98082.16;10025345;29;20550;-79
2021/03/08 13:53:06;;;;;;;4.35;3.20;;;;;;;9.44;31.50;98077.59;10045877;29;20053;-78
2021/03/08 13:58:26;;;;;;;4.85;3.10;;;;;;;9.38;30.71;98068.78;10045769;29;20053;-77
2021/03/08 14:03:46;;;;;;;3.50;2.42;;;;;;;9.34;31.10;98072.00;10058421;29;20041;-77
2021/03/08 14:09:06;;;;;;;4.05;3.05;;;;;;;9.36;30.72;98063.81;10045722;29;20053;-79
2021/03/08 14:14:25;;;;;;;5.57;3.33;;;;;;;9.27;31.05;98064.50;10058536;29;20052;-80
2021/03/08 14:19:45;;;;;;;5.05;3.47;;;;;;;9.57;30.61;98054.22;10058307;29;20046;-79
2021/03/08 14:25:06;;;;;;;8.20;4.35;;;;;;;9.99;30.74;98059.47;10027523;29;20128;-79
2021/03/08 14:30:26;;;;;;;6.15;4.25;;;;;;;10.07;29.83;98050.97;10032077;29;20053;-79
2021/03/08 14:35:46;;;;;;;6.85;2.70;;;;;;;9.29;29.82;98061.13;10044963;29;20413;-80
2021/03/08 14:41:06;;;;;;;6.15;2.90;;;;;;;8.73;30.03;98058.88;10017411;29;20118;-79
2021/03/08 14:46:26;;;;;;;3.53;2.72;;;;;;;8.51;30.32;98062.69;10009591;29;20508;-80
2021/03/08 14:51:46;;;;;;;4.95;2.97;;;;;;;8.33;30.21;98057.09;10048518;29;20059;-80
2021/03/08 14:57:09;;;;;;;7.22;3.45;;;;;;;8.08;30.55;98052.88;10042039;29;20125;-79
2021/03/08 15:02:29;;;;;;;6.90;3.58;;;;;;;8.24;30.68;98066.06;10065415;29;20086;-79
2021/03/08 15:07:49;;;;;;;9.98;4.15;;;;;;;8.67;30.23;98058.41;10040904;29;20049;-80
2021/03/08 15:13:09;;;;;;;6.68;4.03;;;;;;;8.63;29.92;98060.88;10039332;29;20053;-78
2021/03/08 15:18:29;;;;;;;6.25;4.03;;;;;;;8.33;29.77;98067.47;10010165;29;20065;-78
2021/03/08 15:23:49;;;;;;;7.50;4.15;;;;;;;8.03;29.75;98058.13;9998076;29;20517;-75
2021/03/08 15:29:08;;;;;;;6.47;4.25;;;;;;;7.54;29.96;98064.47;10008184;29;20122;-76
2021/03/08 15:34:28;;;;;;;6.95;3.45;;;;;;;7.21;30.24;98054.69;10007375;29;20041;-80
2021/03/08 15:39:48;;;;;;;8.60;3.92;;;;;;;6.94;30.55;98057.97;9985170;29;20049;-79
2021/03/08 15:45:09;;;;;;;6.40;3.67;;;;;;;6.69;30.86;98055.16;10018794;29;20045;-78
2021/03/08 15:50:28;;;;;;;5.22;4.20;;;;;;;6.57;30.74;98065.19;10014907;29;20053;-80
2021/03/08 15:55:48;;;;;;;5.80;4.55;;;;;;;6.31;30.97;98066.38;10001836;29;20057;-77
2021/03/08 16:01:08;;;;;;;6.95;4.57;;;;;;;6.06;31.18;98059.94;10121167;24;20062;-80
2021/03/08 16:12:35;;;;;;;7.00;4.05;;;;;;;5.46;31.34;98071.22;10550954;24;20065;-80
2021/03/08 16:17:56;;;;;;;7.00;4.05;;;;;;;5.14;31.72;98076.50;10012914;29;20046;-79
2021/03/08 16:23:16;;;;;;;5.15;4.32;;;;;;;4.91;31.37;98078.47;10026448;29;20478;-79
2021/03/08 16:28:36;;;;;;;7.07;4.50;;;;;;;4.69;32.49;98091.66;10024966;29;20045;-80
2021/03/08 16:33:56;;;;;;;8.38;4.95;;;;;;;4.49;32.55;98092.50;10013318;29;20042;-80
2021/03/08 16:39:16;;;;;;;11.10;6.10;;;;;;;4.30;32.48;98092.75;10036717;29;20048;-77
2021/03/08 16:44:37;;;;;;;10.25;6.32;;;;;;;4.08;32.93;98088.59;10036320;29;20041;-76
2021/03/08 16:49:59;;;;;;;7.13;6.07;;;;;;;3.88;32.81;98097.66;10023523;29;20057;-75
2021/03/08 16:55:19;;;;;;;8.35;6.00;;;;;;;3.66;33.25;98098.94;10047690;29;20405;-74
2021/03/08 17:00:39;;;;;;;11.23;6.22;;;;;;;3.47;33.58;98101.88;10022249;29;20046;-76
2021/03/08 17:05:59;;;;;;;9.02;6.00;;;;;;;3.34;34.18;98104.72;9984365;29;20509;-76
2021/03/08 17:11:19;;;;;;;9.10;6.05;;;;;;;3.21;34.51;98107.53;10009062;29;20061;-76
2021/03/08 17:16:39;;;;;;;10.52;6.20;;;;;;;3.09;34.68;98126.38;10009219;29;20042;-75
2021/03/08 17:21:59;;;;;;;10.52;6.47;;;;;;;2.96;34.66;98129.88;9996595;29;20053;-76
2021/03/08 17:27:18;;;;;;;14.27;8.90;;;;;;;2.88;34.99;98134.56;10009290;29;20050;-80
2021/03/08 17:32:38;;;;;;;10.63;8.13;;;;;;;2.83;35.05;98138.19;10018589;29;20054;-80
2021/03/08 17:37:58;;;;;;;10.07;7.65;;;;;;;2.72;35.27;98150.19;10023950;29;20061;-84
2021/03/08 17:43:18;;;;;;;11.27;7.65;;;;;;;2.60;35.66;98154.41;10011938;29;20052;-79
2021/03/08 17:48:37;;;;;;;10.48;7.13;;;;;;;2.48;36.00;98164.91;9983318;29;20106;-75
2021/03/08 17:53:57;;;;;;;9.82;7.10;;;;;;;2.40;35.98;98161.31;10008684;29;20508;-77
2021/03/08 17:59:17;;;;;;;9.40;6.70;;;;;;;2.35;36.74;98167.69;9995063;29;20042;-75
2021/03/08 18:04:37;;;;;;;10.75;7.43;;;;;;;2.32;36.80;98179.75;10008510;29;20057;-76
2021/03/08 18:09:56;;;;;;;12.98;7.93;;;;;;;2.27;37.92;98172.31;10005334;29;20054;-80
2021/03/08 18:15:16;;;;;;;11.00;6.18;;;;;;;2.20;37.93;98175.69;9983331;29;20095;-79
2021/03/08 18:20:36;;;;;;;8.75;6.40;;;;;;;2.11;37.29;98181.63;9969795;29;20051;-78
2021/03/08 18:25:56;;;;;;;11.68;8.05;;;;;;;1.96;37.64;98177.38;9973455;29;20046;-78
2021/03/08 18:31:16;;;;;;;11.27;6.70;;;;;;;1.92;38.33;98187.19;10020012;29;20057;-79
2021/03/08 18:36:36;;;;;;;11.55;6.97;;;;;;;1.81;38.26;98182.59;10007101;29;20075;-79
2021/03/08 18:41:58;;;;;;;8.68;6.30;;;;;;;1.75;38.36;98184.72;10007217;29;20046;-79
2021/03/08 18:47:17;;;;;;;11.13;5.95;;;;;;;1.66;38.18;98185.84;10008815;29;20098;-82
2021/03/08 18:52:39;;;;;;;7.78;5.70;;;;;;;1.56;38.97;98184.03;10238950;23;20466;-82
2021/03/08 18:58:00;;;;;;;9.40;5.57;;;;;;;1.49;39.11;98190.84;10005350;29;20068;-78
2021/03/08 19:03:20;;;;;;;6.18;4.38;;;;;;;1.44;38.84;98188.91;9985389;29;20046;-79
2021/03/08 19:08:40;;;;;;;7.53;5.60;;;;;;;1.40;39.49;98185.72;10014274;29;20114;-79
2021/03/08 19:14:00;;;;;;;8.57;5.15;;;;;;;1.40;39.65;98191.25;9995562;29;20111;-79
2021/03/08 19:19:22;;;;;;;9.05;4.97;;;;;;;1.37;39.58;98186.78;9996339;29;20053;-79
2021/03/08 19:24:42;;;;;;;9.23;5.05;;;;;;;1.30;39.31;98196.38;10023658;29;20390;-80
2021/03/08 19:30:04;;;;;;;8.32;5.07;;;;;;;1.25;39.44;98193.69;9982718;29;20054;-79
2021/03/08 19:35:24;;;;;;;8.63;4.70;;;;;;;1.20;39.83;98197.28;10008083;29;20049;-78
2021/03/08 19:40:44;;;;;;;8.02;4.65;;;;;;;1.20;39.96;98208.28;9989314;29;20049;-79
2021/03/08 19:46:04;;;;;;;8.73;5.15;;;;;;;1.11;40.07;98192.88;10013820;29;20046;-79
2021/03/08 19:51:23;;;;;;;8.13;5.20;;;;;;;1.04;40.40;98201.72;9989096;29;20046;-79
2021/03/08 19:56:43;;;;;;;11.52;5.63;;;;;;;1.01;40.03;98202.75;10027046;29;20095;-79
2021/03/08 20:02:03;;;;;;;9.25;5.18;;;;;;;0.96;40.16;98198.81;9969309;29;20050;-81
2021/03/08 20:07:23;;;;;;;9.50;5.20;;;;;;;0.92;40.56;98205.88;9996778;29;20058;-83
2021/03/08 20:12:42;;;;;;;8.10;5.22;;;;;;;0.90;40.16;98200.91;9986831;29;20071;-80
2021/03/08 20:18:03;;;;;;;11.05;5.78;;;;;;;0.84;40.41;98198.19;9985824;29;20083;-81
2021/03/08 20:23:22;;;;;;;7.90;4.85;;;;;;;0.79;40.79;98195.53;9986466;29;20046;-79
2021/03/08 20:28:45;;;;;;;8.50;4.32;;;;;;;0.75;41.07;98198.56;9976311;29;20414;-79
2021/03/08 20:34:04;;;;;;;6.88;4.00;;;;;;;0.67;41.46;98207.91;9988523;29;20050;-76
2021/03/08 20:39:24;;;;;;;9.98;4.40;;;;;;;0.59;41.45;98207.00;9987669;29;20050;-79
2021/03/08 20:44:44;;;;;;;10.68;5.07;;;;;;;0.41;42.41;98203.69;9975128;29;20406;-78
2021/03/08 20:50:06;;;;;;;8.02;4.65;;;;;;;0.33;42.20;98202.03;9988099;29;20054;-78
2021/03/08 20:55:27;;;;;;;9.43;5.22;;;;;;;0.25;41.84;98196.34;9995246;29;20061;-79
2021/03/08 21:00:50;;;;;;;8.57;4.25;;;;;;;0.20;42.17;98197.16;10016751;29;20493;-83
2021/03/08 21:06:10;;;;;;;9.05;4.43;;;;;;;0.19;42.51;98198.38;10020319;29;20049;-80
2021/03/08 21:11:30;;;;;;;7.95;4.88;;;;;;;0.14;43.16;98196.47;9984433;29;20170;-77
2021/03/08 21:16:50;;;;;;;7.82;4.93;;;;;;;0.16;42.70;98189.19;10188744;23;20541;-82
2021/03/08 21:22:10;;;;;;;8.90;4.85;;;;;;;0.15;43.03;98195.94;10009308;29;20049;-80
2021/03/08 21:27:30;;;;;;;7.82;4.88;;;;;;;0.07;43.04;98197.75;10034812;29;20065;-79
2021/03/08 21:32:50;;;;;;;9.77;5.07;;;;;;;-0.06;43.53;98183.91;10021705;29;20049;-78
2021/03/08 21:44:02;;;;;;;10.75;5.10;;;;;;;-0.15;43.61;98197.94;11081907;23;20113;-79
2021/03/08 21:49:22;;;;;;;12.05;5.68;;;;;;;-0.17;43.76;98197.72;10027835;29;20053;-80
2021/03/08 21:54:42;;;;;;;9.60;5.38;;;;;;;-0.23;44.07;98194.28;10009319;29;20041;-79
2021/03/08 22:00:07;;;;;;;8.73;5.15;;;;;;;-0.20;44.20;98198.72;10020558;29;20051;-79
2021/03/08 22:05:27;;;;;;;10.23;5.70;;;;;;;-0.21;44.77;98200.72;9980706;29;20136;-80
2021/03/08 22:10:47;;;;;;;11.38;5.95;;;;;;;-0.25;44.00;98186.56;9994707;29;20050;-79
2021/03/08 22:16:08;;;;;;;10.20;6.03;;;;;;;-0.30;45.30;98182.59;9992932;29;20049;-79
2021/03/08 22:21:28;;;;;;;13.02;6.43;;;;;;;-0.40;44.69;98183.41;9993631;29;20045;-79
2021/03/08 22:26:47;;;;;;;13.55;6.75;;;;;;;-0.36;45.02;98192.13;9982694;29;20398;-79
2021/03/08 22:32:07;;;;;;;11.30;6.75;;;;;;;-0.30;44.71;98188.06;10007627;29;20058;-79
2021/03/08 22:37:27;;;;;;;10.73;6.57;;;;;;;-0.25;44.92;98183.06;9994768;29;20049;-79
2021/03/08 22:42:47;;;;;;;11.68;6.47;;;;;;;-0.31;44.73;98180.34;9994786;29;20114;-78
2021/03/08 22:48:07;;;;;;;11.30;6.82;;;;;;;-0.31;44.88;98169.38;9982010;29;20050;-78
2021/03/08 22:53:26;;;;;;;13.15;7.50;;;;;;;-0.36;45.41;98165.44;9981710;29;20057;-79
2021/03/08 22:58:46;;;;;;;11.20;6.60;;;;;;;-0.32;45.70;98170.63;9994318;29;20050;-78
2021/03/08 23:04:06;;;;;;;11.43;6.57;;;;;;;-0.29;45.38;98172.34;9981402;29;20054;-78
2021/03/08 23:09:26;;;;;;;11.02;6.80;;;;;;;-0.31;45.80;98159.16;9994362;29;20451;-78
2021/03/08 23:14:46;;;;;;;11.35;6.43;;;;;;;-0.32;45.65;98160.41;9987531;29;20046;-79
2021/03/08 23:20:10;;;;;;;12.05;7.25;;;;;;;-0.35;46.19;98158.69;10013736;29;20049;-78
2021/03/08 23:25:30;;;;;;;9.60;6.30;;;;;;;-0.35;45.85;98158.69;10001302;29;20455;-79
2021/03/08 23:30:50;;;;;;;13.57;6.63;;;;;;;-0.36;46.29;98151.72;10026419;29;20735;-79
2021/03/08 23:36:11;;;;;;;12.05;6.60;;;;;;;-0.35;46.08;98142.22;10013543;29;20054;-79
2021/03/08 23:41:31;;;;;;;9.43;6.25;;;;;;;-0.35;46.24;98147.72;10000090;29;20110;-78
2021/03/08 23:46:50;;;;;;;12.63;7.20;;;;;;;-0.39;46.14;98154.72;10000345;29;20446;-79
2021/03/08 23:52:10;;;;;;;13.30;6.97;;;;;;;-0.44;46.82;98150.78;10012771;29;20050;-79
2021/03/08 23:57:30;;;;;;;14.95;6.63;;;;;;;-0.44;46.57;98161.75;10012525;29;20049;-79
